Northome, Minnesota
Current Conditions -  °F | °C
As of 2:51 PM on Thursday 27 Nov 2014 (Local Time) from KVWU Reporting Station
Clear Clear  
Wind Chill:   Ceiling: Unl
Heat Index:   Visibility: 10mi
Dew Point: -8°   Wind: 0mph
Humidity: 66%   Direction: NA
Pressure: 30.33"   Gusts: NA
Location:  47.87°N, 94.28°W
Report Text: KVWU 272051Z AUTO 00000KT 10SM CLR M17/M22 A3033 RMK AO2
Loading
Personal Weather Stations






























Interactive Weather Map New forecast layout! Learn more

10-Day Weather Forecast

Advertisements
Track Severe Weather on mobile